WPI YBAF-YBAF
Flight info
| Callsign | WPI |
|---|---|
| Flight time | 0h 31m |
| Altitude | 3000 |
| Route | YBAF |
| Aircraft | BE36/L-BDFGLORY/S |
Departure
| Time | 2026-05-01 13:12 |
|---|---|
| Airport | Brisbane Archerfield Airport (YBAF) |
Arrival
| Time | 2026-05-01 13:44 |
|---|---|
| Airport | Brisbane Archerfield Airport (YBAF) |
| Time | Latitude | Longitude | Altitude | Speed | Heading |
|---|---|---|---|---|---|
| 2026-05-01 12:53 | -27.57027 | 153.01228 | 48 ft | 0 kts | 190° |
| 2026-05-01 13:07 | -27.57176 | 153.01144 | 58 ft | 0 kts | 247° |
| 2026-05-01 13:08 | -27.57180 | 153.01128 | 60 ft | 10 kts | 256° |
| 2026-05-01 13:08 | -27.57202 | 153.01023 | 61 ft | 17 kts | 256° |
| 2026-05-01 13:08 | -27.57235 | 153.00873 | 60 ft | 19 kts | 258° |
| 2026-05-01 13:08 | -27.57240 | 153.00746 | 56 ft | 19 kts | 287° |
| 2026-05-01 13:09 | -27.57193 | 153.00585 | 53 ft | 23 kts | 287° |
| 2026-05-01 13:09 | -27.57142 | 153.00406 | 49 ft | 24 kts | 288° |
| 2026-05-01 13:09 | -27.57095 | 153.00243 | 47 ft | 21 kts | 288° |
| 2026-05-01 13:09 | -27.57054 | 153.00095 | 47 ft | 19 kts | 287° |
| 2026-05-01 13:10 | -27.57013 | 152.99954 | 43 ft | 19 kts | 288° |
| 2026-05-01 13:10 | -27.56999 | 152.99864 | 43 ft | 7 kts | 248° |
| 2026-05-01 13:10 | -27.57015 | 152.99845 | 43 ft | 0 kts | 203° |
| 2026-05-01 13:11 | -27.57016 | 152.99845 | 43 ft | 2 kts | 202° |
| 2026-05-01 13:11 | -27.57070 | 152.99848 | 43 ft | 11 kts | 109° |
| 2026-05-01 13:11 | -27.57089 | 152.99914 | 45 ft | 28 kts | 109° |
| 2026-05-01 13:12 | -27.57233 | 153.00417 | 97 ft | 95 kts | 108° |
| 2026-05-01 13:12 | -27.57435 | 153.01200 | 357 ft | 110 kts | 105° |
| 2026-05-01 13:12 | -27.57594 | 153.02070 | 645 ft | 116 kts | 97° |
| 2026-05-01 13:12 | -27.57208 | 153.02853 | 876 ft | 130 kts | 25° |
| 2026-05-01 13:13 | -27.56273 | 153.02785 | 993 ft | 148 kts | 332° |
| 2026-05-01 13:13 | -27.55666 | 153.01872 | 1074 ft | 147 kts | 287° |
| 2026-05-01 13:13 | -27.55370 | 153.00778 | 1160 ft | 147 kts | 281° |
| 2026-05-01 13:13 | -27.55146 | 152.99714 | 1217 ft | 131 kts | 278° |
| 2026-05-01 13:14 | -27.54918 | 152.98747 | 1141 ft | 125 kts | 285° |
| 2026-05-01 13:14 | -27.54809 | 152.97823 | 1002 ft | 115 kts | 252° |
| 2026-05-01 13:14 | -27.55218 | 152.97169 | 942 ft | 97 kts | 202° |
| 2026-05-01 13:14 | -27.55850 | 152.97114 | 796 ft | 94 kts | 155° |
| 2026-05-01 13:15 | -27.56340 | 152.97612 | 568 ft | 100 kts | 122° |
| 2026-05-01 13:15 | -27.56626 | 152.98315 | 392 ft | 93 kts | 113° |
| 2026-05-01 13:15 | -27.56820 | 152.98976 | 266 ft | 86 kts | 109° |
| 2026-05-01 13:15 | -27.56995 | 152.99613 | 113 ft | 85 kts | 113° |
| 2026-05-01 13:16 | -27.57166 | 153.00184 | 51 ft | 63 kts | 109° |
| 2026-05-01 13:16 | -27.57288 | 153.00614 | 57 ft | 71 kts | 108° |
| 2026-05-01 13:16 | -27.57477 | 153.01290 | 217 ft | 103 kts | 110° |
| 2026-05-01 13:17 | -27.57085 | 153.03258 | 827 ft | 126 kts | 347° |
| 2026-05-01 13:17 | -27.56430 | 153.02605 | 959 ft | 129 kts | 296° |
| 2026-05-01 13:18 | -27.55840 | 153.00529 | 1109 ft | 148 kts | 280° |
| 2026-05-01 13:18 | -27.55626 | 152.99410 | 1154 ft | 137 kts | 279° |
| 2026-05-01 13:18 | -27.55400 | 152.98398 | 1028 ft | 128 kts | 275° |
| 2026-05-01 13:18 | -27.55623 | 152.97548 | 943 ft | 108 kts | 217° |
| 2026-05-01 13:19 | -27.56309 | 152.97335 | 761 ft | 105 kts | 165° |
| 2026-05-01 13:19 | -27.56766 | 152.97898 | 611 ft | 110 kts | 91° |
| 2026-05-01 13:19 | -27.56928 | 152.99346 | 186 ft | 83 kts | 113° |
| 2026-05-01 13:20 | -27.57094 | 152.99930 | 52 ft | 65 kts | 110° |
| 2026-05-01 13:20 | -27.57222 | 153.00377 | 61 ft | 78 kts | 110° |
| 2026-05-01 13:20 | -27.57433 | 153.01061 | 241 ft | 103 kts | 112° |
| 2026-05-01 13:21 | -27.57445 | 153.02628 | 636 ft | 119 kts | 40° |
| 2026-05-01 13:21 | -27.56649 | 153.02766 | 782 ft | 126 kts | 332° |
| 2026-05-01 13:21 | -27.56178 | 153.01955 | 885 ft | 128 kts | 287° |
| 2026-05-01 13:21 | -27.55889 | 153.00998 | 952 ft | 132 kts | 286° |
| 2026-05-01 13:22 | -27.55627 | 153.00031 | 1019 ft | 119 kts | 283° |
| 2026-05-01 13:22 | -27.55425 | 152.99167 | 846 ft | 108 kts | 280° |
| 2026-05-01 13:22 | -27.55370 | 152.98379 | 662 ft | 97 kts | 244° |
| 2026-05-01 13:22 | -27.55843 | 152.97943 | 523 ft | 87 kts | 187° |
| 2026-05-01 13:23 | -27.56391 | 152.98163 | 379 ft | 91 kts | 140° |
| 2026-05-01 13:23 | -27.56736 | 152.98755 | 268 ft | 86 kts | 117° |
| 2026-05-01 13:23 | -27.56930 | 152.99347 | 155 ft | 78 kts | 111° |
| 2026-05-01 13:23 | -27.57081 | 152.99893 | 45 ft | 62 kts | 109° |
| 2026-05-01 13:24 | -27.57218 | 153.00358 | 58 ft | 84 kts | 112° |
| 2026-05-01 13:24 | -27.57437 | 153.01084 | 257 ft | 106 kts | 111° |
| 2026-05-01 13:24 | -27.57666 | 153.01875 | 505 ft | 107 kts | 107° |
| 2026-05-01 13:25 | -27.56733 | 153.02917 | 822 ft | 128 kts | 342° |
| 2026-05-01 13:25 | -27.56151 | 153.02196 | 832 ft | 127 kts | 288° |
| 2026-05-01 13:25 | -27.55890 | 153.01286 | 931 ft | 120 kts | 286° |
| 2026-05-01 13:25 | -27.55628 | 153.00373 | 936 ft | 123 kts | 286° |
| 2026-05-01 13:26 | -27.55380 | 152.99529 | 939 ft | 105 kts | 287° |
| 2026-05-01 13:26 | -27.55148 | 152.98771 | 767 ft | 100 kts | 283° |
| 2026-05-01 13:26 | -27.55122 | 152.98063 | 677 ft | 87 kts | 246° |
| 2026-05-01 13:26 | -27.55564 | 152.97625 | 546 ft | 89 kts | 195° |
| 2026-05-01 13:27 | -27.56157 | 152.97712 | 488 ft | 91 kts | 146° |
| 2026-05-01 13:27 | -27.56548 | 152.98303 | 361 ft | 95 kts | 121° |
| 2026-05-01 13:27 | -27.56972 | 152.99502 | 147 ft | 80 kts | 108° |
| 2026-05-01 13:28 | -27.57348 | 153.00787 | 373 ft | 100 kts | 116° |
| 2026-05-01 13:28 | -27.57591 | 153.01244 | 514 ft | 105 kts | 135° |
| 2026-05-01 13:29 | -27.58813 | 153.01030 | 1054 ft | 119 kts | 249° |
| 2026-05-01 13:29 | -27.58212 | 152.99107 | 998 ft | 140 kts | 287° |
| 2026-05-01 13:30 | -27.56724 | 152.97575 | 508 ft | 88 kts | 91° |
| 2026-05-01 13:31 | -27.56922 | 152.98831 | 239 ft | 77 kts | 106° |
| 2026-05-01 13:31 | -27.57374 | 153.00362 | 57 ft | 66 kts | 108° |
| 2026-05-01 13:32 | -27.57801 | 153.01775 | 420 ft | 105 kts | 114° |
| 2026-05-01 13:33 | -27.59104 | 153.01620 | 945 ft | 124 kts | 278° |
| 2026-05-01 13:33 | -27.58439 | 152.99757 | 947 ft | 130 kts | 292° |
| 2026-05-01 13:34 | -27.57653 | 152.98149 | 728 ft | 107 kts | 329° |
| 2026-05-01 13:34 | -27.57087 | 152.99242 | 289 ft | 102 kts | 99° |
| 2026-05-01 13:35 | -27.57395 | 153.00435 | 57 ft | 65 kts | 107° |
| 2026-05-01 13:35 | -27.57574 | 153.01081 | 202 ft | 101 kts | 114° |
| 2026-05-01 13:35 | -27.58220 | 153.02731 | 810 ft | 121 kts | 133° |
| 2026-05-01 13:36 | -27.59033 | 153.03009 | 986 ft | 136 kts | 189° |
| 2026-05-01 13:36 | -27.59892 | 153.02510 | 1096 ft | 141 kts | 221° |
| 2026-05-01 13:36 | -27.59754 | 153.00657 | 1116 ft | 139 kts | 297° |
| 2026-05-01 13:37 | -27.59264 | 152.99692 | 1056 ft | 142 kts | 299° |
| 2026-05-01 13:37 | -27.58811 | 152.98699 | 1010 ft | 137 kts | 295° |
| 2026-05-01 13:37 | -27.58446 | 152.97825 | 892 ft | 114 kts | 293° |
| 2026-05-01 13:37 | -27.58077 | 152.97076 | 725 ft | 106 kts | 311° |
| 2026-05-01 13:38 | -27.56839 | 152.97047 | 525 ft | 98 kts | 54° |
| 2026-05-01 13:38 | -27.56696 | 152.97772 | 383 ft | 100 kts | 97° |
| 2026-05-01 13:38 | -27.56837 | 152.98499 | 280 ft | 85 kts | 107° |
| 2026-05-01 13:39 | -27.56996 | 152.99106 | 181 ft | 82 kts | 114° |
| 2026-05-01 13:39 | -27.57182 | 152.99686 | 88 ft | 73 kts | 109° |
| 2026-05-01 13:39 | -27.57309 | 153.00135 | 55 ft | 50 kts | 108° |
| 2026-05-01 13:39 | -27.57469 | 153.00708 | 102 ft | 100 kts | 109° |
| 2026-05-01 13:40 | -27.57664 | 153.01358 | 311 ft | 111 kts | 114° |
| 2026-05-01 13:40 | -27.57948 | 153.02163 | 551 ft | 109 kts | 122° |
| 2026-05-01 13:40 | -27.58544 | 153.02580 | 740 ft | 109 kts | 182° |
| 2026-05-01 13:40 | -27.59256 | 153.02227 | 887 ft | 117 kts | 209° |
| 2026-05-01 13:41 | -27.59798 | 153.01513 | 952 ft | 126 kts | 249° |
| 2026-05-01 13:41 | -27.59741 | 153.00586 | 1035 ft | 117 kts | 285° |
| 2026-05-01 13:41 | -27.59451 | 152.99733 | 1054 ft | 117 kts | 294° |
| 2026-05-01 13:41 | -27.59073 | 152.98901 | 1051 ft | 122 kts | 297° |
| 2026-05-01 13:42 | -27.58667 | 152.98069 | 1002 ft | 121 kts | 297° |
| 2026-05-01 13:42 | -27.58185 | 152.97318 | 913 ft | 115 kts | 322° |
| 2026-05-01 13:42 | -27.57487 | 152.96983 | 883 ft | 109 kts | 354° |
| 2026-05-01 13:42 | -27.56750 | 152.97089 | 786 ft | 106 kts | 28° |
| 2026-05-01 13:43 | -27.56435 | 152.97755 | 579 ft | 104 kts | 106° |
| 2026-05-01 13:43 | -27.56674 | 152.98496 | 402 ft | 89 kts | 110° |
| 2026-05-01 13:43 | -27.56843 | 152.99106 | 228 ft | 78 kts | 113° |
| 2026-05-01 13:43 | -27.57020 | 152.99672 | 87 ft | 73 kts | 113° |
| 2026-05-01 13:44 | -27.57147 | 153.00119 | 50 ft | 47 kts | 109° |
| 2026-05-01 13:44 | -27.57226 | 153.00398 | 56 ft | 20 kts | 108° |
| 2026-05-01 13:44 | -27.57196 | 153.00464 | 53 ft | 12 kts | 19° |
| 2026-05-01 13:44 | -27.57187 | 153.00468 | 52 ft | 0 kts | 17° |
| 2026-05-01 13:45 | -27.57171 | 153.00475 | 50 ft | 7 kts | 36° |
| 2026-05-01 13:45 | -27.57176 | 153.00524 | 53 ft | 9 kts | 107° |
| 2026-05-01 13:45 | -27.57198 | 153.00606 | 57 ft | 14 kts | 108° |
| 2026-05-01 13:46 | -27.57235 | 153.00732 | 55 ft | 18 kts | 109° |
| 2026-05-01 13:46 | -27.57242 | 153.00834 | 61 ft | 14 kts | 77° |
| 2026-05-01 13:46 | -27.57214 | 153.00971 | 62 ft | 21 kts | 76° |
| 2026-05-01 13:46 | -27.57185 | 153.01104 | 62 ft | 12 kts | 76° |
| 2026-05-01 13:47 | -27.57144 | 153.01167 | 58 ft | 14 kts | 12° |
| 2026-05-01 13:47 | -27.57070 | 153.01193 | 53 ft | 10 kts | 44° |
| 2026-05-01 13:47 | -27.57040 | 153.01220 | 51 ft | 2 kts | 134° |
| 2026-05-01 13:47 | -27.57043 | 153.01220 | 52 ft | 0 kts | 184° |